Flight Track Log - Related Links

Times and Time Zones

All times are in EDT time to prevent confusion due to time zone crossing. See the JBU116 flight status page for this flight to view local times or setup timezone preferences in your user account.

Time Position Orientation Groundspeed Altitude Reporting Facility
EDT Latitude Longitude Course Direction KTS MPH feet Rate Location/Type
Sat 09:49:06 AM 40.6333 -73.8500 316° Northwest 170 196 2,300  Level New York TRACON
Sat 09:50:01 AM 40.5833 -73.8833 207° Southwest 261 300 4,000 2,243 Climbing New York TRACON
Sat 09:51:00 AM 40.8314 -74.0387 311° West  Level FlightAware Approximate
Sat 09:51:01 AM 40.5667 -73.8000 105° East 294 338 6,600  Level New York TRACON
Sat 09:52:00 AM 40.8949 -74.1339 311° West  Level FlightAware Approximate
Sat 09:52:00 AM 40.6167 -73.7167 52° Northeast 278 320 9,200  Level New York TRACON
Sat 09:53:00 AM 40.9619 -74.2247 316° Northwest  Level FlightAware Approximate
Sat 09:53:00 AM 40.6667 -73.6333 52° Northeast 322 371 10,900  Level New York TRACON
Sat 09:54:00 AM 41.0307 -74.3133 316° Northwest  Level FlightAware Approximate
Sat 09:54:00 AM 40.7333 -73.5500 43° Northeast 360 414 13,300  Level New York TRACON
Sat 09:56:17 AM 40.9281 -73.6714 335° Northwest 354 407 17,000 1,133 Climbing New York Center
Sat 09:57:16 AM 40.9669 -73.7883 294° West 349 402 17,000  Level New York Center
Sat 09:58:17 AM 41.0056 -73.9056 294° West 344 396 17,000  Level New York Center
Sat 09:59:18 AM 41.0461 -74.0203 295° West 339 390 17,000  Level New York Center
Sat 10:00:17 AM 41.1014 -74.1247 305° West 344 396 17,000  Level New York Center
Sat 10:01:18 AM 41.1589 -74.2297 306° West 349 402 17,000 446 Level New York Center
Sat 10:02:18 AM 41.2081 -74.3231 305° West 349 402 17,900 1,450 Climbing New York Center
Sat 10:03:18 AM 41.2717 -74.4258 309° West 349 402 19,900 1,068 Climbing New York Center
Sat 10:04:16 AM 41.3689 -74.5142 326° Northwest 393 452 20,000 50 Climbing New York Center
Sat 10:05:17 AM 41.4458 -74.5792 328° Northwest 381 438 20,000 645 Level New York Center
Sat 10:06:17 AM 41.5156 -74.6747 314° West 371 427 21,300 992 Climbing New York Center
Sat 10:07:18 AM 41.5658 -74.7939 299° West 364 419 22,000 347 Climbing New York Center
Sat 10:08:18 AM 41.6200 -74.9139 301° West 370 426 22,000  Level New York Center
Sat 10:09:17 AM 41.6797 -75.0481 301° West 385 443 22,000  Level New York Center
Sat 10:10:16 AM 41.7336 -75.1683 301° West 385 443 22,000  Level New York Center
Sat 10:11:18 AM 41.7856 -75.2856 301° West 385 443 22,000  Level New York Center
Sat 10:12:16 AM 41.8350 -75.4033 299° West 375 432 22,000  Level New York Center
Sat 10:13:19 AM 41.8889 -75.5183 302° West 370 426 22,000  Level New York Center
Sat 10:14:17 AM 41.9403 -75.6392 300° West 370 426 22,000 -667 Level New York Center
Sat 10:15:16 AM 41.9917 -75.7544 301° West 370 426 20,700 -1,400 Descending New York Center
Sat 10:16:17 AM 42.0408 -75.8700 300° West 370 426 19,200 -1,500 Descending New York Center
Sat 10:17:16 AM 42.0900 -75.9828 300° West 364 419 17,700 -1,488 Descending New York Center
Sat 10:18:18 AM 42.1436 -76.0878 305° West 358 412 16,200 -1,516 Descending New York Center
Sat 10:18:51 AM 42.1903 -76.1217 332° Northwest 335 386 15,300 -1,532 Descending Boston Center
Sat 10:19:52 AM 42.2831 -76.1244 359° North 335 386 13,800 -1,475 Descending Boston Center
Sat 10:20:53 AM 42.3772 -76.1111 North 335 386 12,300 -1,328 Descending Boston Center
Sat 10:21:54 AM 42.4664 -76.1014 North 331 381 11,100 -639 Descending Boston Center
Sat 10:22:55 AM 42.5550 -76.0908 North 322 371 11,000 -49 Descending Boston Center
Sat 10:23:56 AM 42.6439 -76.0778 North 322 371 11,000 -393 Level Boston Center
Sat 10:24:57 AM 42.7247 -76.0622 North 306 352 10,200 -1,105 Descending Boston Center
Sat 10:25:12 AM 42.7486 -76.0556 12° North 274 315 9,600 -1,770 Descending Boston Center
Sat 10:25:58 AM 42.8006 -76.0364 15° North 287 330 8,400 -1,600 Descending Boston Center
Sat 10:26:12 AM 42.8206 -76.0228 27° Northeast 271 312 8,000 -885 Descending Boston Center
Sat 10:26:59 AM 42.8681 -76.0028 17° North 266 306 7,500 -1,279 Descending Boston Center
Sat 10:27:13 AM 42.8881 -75.9886 27° Northeast 231 266 6,700 -1,967 Descending Boston Center
Sat 10:28:00 AM 42.9239 -75.9708 20° North 231 266 5,500 -1,900 Descending Boston Center
Sat 10:28:13 AM 42.9464 -75.9603 19° North 219 252 4,800 -1,475 Descending Boston Center
Sat 10:29:01 AM 42.9808 -75.9400 23° Northeast 224 258 4,000 -787 Descending Boston Center
Sat 10:29:14 AM 43.0025 -75.9314 16° North 212 244 4,000 -892 Level Boston Center
Sat 10:30:15 AM 43.0506 -75.8878 34° Northeast 214 246 2,900 -744 Descending Boston Center
Sat 10:31:15 AM 43.0994 -75.8886 359° North 198 228 2,500 -436 Descending Boston Center
Sat 10:32:05 AM 43.1133 -75.9428 289° West 197 227 2,100 -393 Descending Boston Center
Sat 10:32:16 AM 43.1117 -75.9567 261° West 181 208 2,100 -393 Level Boston Center
Sat 10:33:06 AM 43.1136 -76.0083 273° West 184 212 1,700 -600 Descending Boston Center
Sat 10:33:16 AM 43.1111 -76.0236 257° West 165 190 1,500 -787 Descending Boston Center
Sat 10:34:07 AM 43.1111 -76.0647 270° West 166 191 900 -689 Descending Boston Center
Sat 10:34:17 AM 43.1089 -76.0753 254° West 136 157 800 -492 Descending Boston Center
Sat 10:35:08 AM 43.1086 -76.1092 269° West 140 161 400 -471 Descending Boston Center

Login

Don't have an account? Register now (free) for customized features, flight alerts, and more!